createdAt,value
2022-12-01T00:01:14.551Z,96811.19
2022-12-01T00:03:44.278Z,96811.75
2022-12-01T00:06:15.525Z,96814.97
2022-12-01T00:09:05.551Z,96813.09
2022-12-01T00:11:32.905Z,96816.50
2022-12-01T00:14:01.036Z,96817.06
2022-12-01T00:16:29.205Z,96810.56
2022-12-01T00:18:58.544Z,96801.44
2022-12-01T00:21:27.055Z,96810.41
2022-12-01T00:23:56.573Z,96806.91
2022-12-01T00:26:25.248Z,96800.59
2022-12-01T00:28:54.368Z,96797.38
2022-12-01T00:31:22.779Z,96795.53
2022-12-01T00:33:50.778Z,96794.09
2022-12-01T00:36:20.149Z,96791.72
2022-12-01T00:38:48.078Z,96788.31
2022-12-01T00:41:15.948Z,96789.72
2022-12-01T00:43:43.843Z,96792.16
2022-12-01T00:46:11.827Z,96804.00
2022-12-01T00:48:40.081Z,96792.75
2022-12-01T00:51:08.023Z,96800.41
2022-12-01T00:53:37.277Z,96803.09
2022-12-01T00:56:05.546Z,96796.34
2022-12-01T00:58:33.421Z,96787.25
2022-12-01T01:01:02.903Z,96793.84
2022-12-01T01:03:31.913Z,96792.25
2022-12-01T01:06:05.536Z,96787.69
2022-12-01T01:08:33.639Z,96790.94
2022-12-01T01:11:03.091Z,96792.66
2022-12-01T01:13:32.043Z,96795.84
2022-12-01T01:16:00.797Z,96792.56
2022-12-01T01:18:29.006Z,96791.25
2022-12-01T01:20:58.291Z,96785.59
2022-12-01T01:23:26.496Z,96790.13
2022-12-01T01:25:54.564Z,96792.25
2022-12-01T01:28:23.817Z,96783.91
2022-12-01T01:30:51.764Z,96781.88
2022-12-01T01:33:19.649Z,96780.38
2022-12-01T01:35:47.561Z,96784.00
2022-12-01T01:38:15.470Z,96784.22
2022-12-01T01:40:46.697Z,96783.53
2022-12-01T01:43:16.963Z,96783.78
2022-12-01T01:45:46.254Z,96783.41
2022-12-01T01:48:14.889Z,96783.00
2022-12-01T01:50:42.932Z,96779.13
2022-12-01T01:53:14.208Z,96789.28
2022-12-01T01:55:42.110Z,96791.81
2022-12-01T01:58:11.421Z,96789.50
2022-12-01T02:00:40.646Z,96799.38
2022-12-01T02:03:11.753Z,96797.38
2022-12-01T02:05:40.863Z,96781.94
2022-12-01T02:08:12.419Z,96793.09
2022-12-01T02:10:54.898Z,96786.94
2022-12-01T02:13:28.462Z,96790.56
2022-12-01T02:16:02.246Z,96784.41
2022-12-01T02:18:36.331Z,96790.56
2022-12-01T02:21:37.623Z,96780.72
2022-12-01T02:24:37.871Z,96792.56
2022-12-01T02:27:08.970Z,96781.88
2022-12-01T02:30:06.940Z,96786.31
2022-12-01T02:32:49.004Z,96783.81
2022-12-01T02:35:23.934Z,96780.63
2022-12-01T02:38:01.289Z,96776.59
2022-12-01T02:40:32.402Z,96778.09
2022-12-01T02:43:04.800Z,96776.75
2022-12-01T02:45:38.268Z,96780.88
2022-12-01T02:48:10.632Z,96776.53
2022-12-01T02:50:40.064Z,96770.38
2022-12-01T02:53:09.591Z,96772.19
2022-12-01T02:55:37.495Z,96772.28
2022-12-01T02:58:14.351Z,96765.41
2022-12-01T03:00:43.592Z,96765.34
2022-12-01T03:03:26.644Z,96769.47
2022-12-01T03:05:58.384Z,96767.03
2022-12-01T03:08:33.546Z,96770.69
2022-12-01T03:11:01.911Z,96771.41
2022-12-01T03:13:39.019Z,96768.19
2022-12-01T03:16:11.383Z,96764.28
2022-12-01T03:18:43.147Z,96763.72
2022-12-01T03:21:12.154Z,96761.69
2022-12-01T03:23:43.170Z,96760.88
2022-12-01T03:26:13.156Z,96753.88
2022-12-01T03:28:44.916Z,96753.78
2022-12-01T03:31:16.184Z,96745.47
2022-12-01T03:33:49.259Z,96744.41
2022-12-01T03:36:21.337Z,96744.41
2022-12-01T03:38:53.135Z,96748.28
2022-12-01T03:41:25.494Z,96746.56
2022-12-01T03:43:57.055Z,96747.03
2022-12-01T03:46:30.630Z,96747.84
2022-12-01T03:49:00.483Z,96748.94
2022-12-01T03:51:32.818Z,96742.91
2022-12-01T03:54:04.154Z,96747.34
2022-12-01T03:56:35.675Z,96748.34
2022-12-01T03:59:04.627Z,96750.00
2022-12-01T04:01:33.545Z,96749.22
2022-12-01T04:04:08.023Z,96745.75
2022-12-01T04:06:36.054Z,96751.22
2022-12-01T04:09:04.184Z,96754.50
2022-12-01T04:11:49.675Z,96749.22
2022-12-01T04:14:17.537Z,96753.63
2022-12-01T04:16:45.409Z,96756.41
2022-12-01T04:19:14.746Z,96752.16
2022-12-01T04:21:42.838Z,96751.25
2022-12-01T04:24:10.731Z,96747.09
2022-12-01T04:26:38.769Z,96746.56
2022-12-01T04:29:09.232Z,96744.66
2022-12-01T04:31:37.473Z,96745.53
2022-12-01T04:34:05.569Z,96745.34
2022-12-01T04:36:36.329Z,96743.13
2022-12-01T04:39:04.912Z,96755.72
2022-12-01T04:41:32.792Z,96755.13
2022-12-01T04:44:00.748Z,96752.31
2022-12-01T04:46:28.649Z,96748.88
2022-12-01T04:48:56.580Z,96749.03
2022-12-01T04:51:24.451Z,96746.88
2022-12-01T04:53:53.713Z,96754.41
2022-12-01T04:56:21.583Z,96752.44
2022-12-01T04:58:49.818Z,96753.97
2022-12-01T05:01:18.947Z,96747.53
2022-12-01T05:03:49.445Z,96752.31
2022-12-01T05:06:19.452Z,96749.97
2022-12-01T05:08:47.672Z,96754.75
2022-12-01T05:11:17.756Z,96757.19
2022-12-01T05:13:47.604Z,96762.22
2022-12-01T05:16:17.441Z,96762.16
2022-12-01T05:18:49.144Z,96759.72
2022-12-01T05:21:16.371Z,96761.84
2022-12-01T05:23:44.658Z,96767.13
2022-12-01T05:26:12.660Z,96767.19
2022-12-01T05:28:42.007Z,96762.38
2022-12-01T05:31:09.932Z,96769.03
2022-12-01T05:33:37.876Z,96771.69
2022-12-01T05:36:06.465Z,96766.38
2022-12-01T05:38:34.350Z,96771.03
2022-12-01T05:41:02.224Z,96766.94
2022-12-01T05:43:30.117Z,96767.88
2022-12-01T05:45:59.638Z,96764.34
2022-12-01T05:48:27.827Z,96760.38
2022-12-01T05:50:55.774Z,96762.84
2022-12-01T05:53:23.687Z,96764.66
2022-12-01T05:55:53.909Z,96773.31
2022-12-01T05:58:21.824Z,96769.09
2022-12-01T06:00:49.741Z,96778.91
2022-12-01T06:03:18.977Z,96772.47
2022-12-01T06:05:46.860Z,96770.63
2022-12-01T06:08:14.849Z,96782.34
2022-12-01T06:10:42.899Z,96771.03
2022-12-01T06:13:10.937Z,96778.94
2022-12-01T06:15:38.972Z,96779.53
2022-12-01T06:18:07.069Z,96776.38
2022-12-01T06:20:36.316Z,96772.34
2022-12-01T06:23:04.572Z,96766.41
2022-12-01T06:25:32.415Z,96772.13
2022-12-01T06:28:00.571Z,96766.88
2022-12-01T06:30:28.451Z,96773.09
2022-12-01T06:32:56.434Z,96771.44
2022-12-01T06:35:24.365Z,96779.84
2022-12-01T06:37:55.562Z,96780.75
2022-12-01T06:40:23.493Z,96782.28
2022-12-01T06:42:51.422Z,96782.34
2022-12-01T06:45:19.349Z,96785.91
2022-12-01T06:47:48.411Z,96784.16
2022-12-01T06:50:16.451Z,96788.34
2022-12-01T06:52:44.328Z,96791.00
2022-12-01T06:55:13.801Z,96798.53
2022-12-01T06:57:43.293Z,96800.19
2022-12-01T07:00:13.467Z,96804.25
2022-12-01T07:02:41.927Z,96804.19
2022-12-01T07:05:10.275Z,96809.78
2022-12-01T07:07:38.536Z,96812.50
2022-12-01T07:10:08.023Z,96819.94
2022-12-01T07:12:37.961Z,96827.22
2022-12-01T07:15:06.964Z,96825.53
2022-12-01T07:17:35.232Z,96824.47
2022-12-01T07:20:04.056Z,96828.69
2022-12-01T07:22:32.942Z,96840.16
2022-12-01T07:25:01.064Z,96831.47
2022-12-01T07:27:31.130Z,96837.81
2022-12-01T07:30:00.424Z,96837.50
2022-12-01T07:32:28.348Z,96845.97
2022-12-01T07:34:56.233Z,96852.19
2022-12-01T07:37:24.116Z,96845.53
2022-12-01T07:39:52.165Z,96849.75
2022-12-01T07:42:20.115Z,96859.00
2022-12-01T07:44:48.059Z,96854.63
2022-12-01T07:47:17.822Z,96849.38
2022-12-01T07:49:45.910Z,96850.81
2022-12-01T07:52:13.896Z,96852.63
2022-12-01T07:54:41.837Z,96845.31
2022-12-01T07:57:09.724Z,96846.91
2022-12-01T07:59:37.613Z,96850.06
2022-12-01T08:02:05.570Z,96848.31
2022-12-01T08:04:34.883Z,96853.22
2022-12-01T08:07:02.790Z,96850.53
2022-12-01T08:09:30.866Z,96846.94
2022-12-01T08:11:58.934Z,96847.91
2022-12-01T08:14:26.972Z,96845.84
2022-12-01T08:16:54.872Z,96834.03
2022-12-01T08:19:22.775Z,96833.66
2022-12-01T08:21:52.074Z,96841.38
2022-12-01T08:24:19.947Z,96846.75
2022-12-01T08:26:47.828Z,96845.41
2022-12-01T08:29:19.979Z,96844.53
2022-12-01T08:31:48.600Z,96842.53
2022-12-01T08:34:16.538Z,96841.03
2022-12-01T08:36:44.455Z,96836.66
2022-12-01T08:39:13.938Z,96831.53
2022-12-01T08:41:41.842Z,96835.13
2022-12-01T08:44:10.890Z,96825.31
2022-12-01T08:46:39.327Z,96816.66
2022-12-01T08:49:07.742Z,96816.41
2022-12-01T08:51:36.435Z,96815.28
2022-12-01T08:54:05.032Z,96816.34
2022-12-01T08:56:35.949Z,96813.09
2022-12-01T08:59:04.258Z,96819.75
2022-12-01T09:01:32.942Z,96811.81
2022-12-01T09:04:08.796Z,96809.09
2022-12-01T09:06:40.765Z,96808.63
2022-12-01T09:09:09.369Z,96810.44
2022-12-01T09:11:38.896Z,96818.16
2022-12-01T09:14:06.869Z,96818.94
2022-12-01T09:16:34.841Z,96821.97
2022-12-01T09:19:03.586Z,96820.88
2022-12-01T09:21:32.624Z,96821.38
2022-12-01T09:24:00.769Z,96826.13
2022-12-01T09:26:29.435Z,96822.25
2022-12-01T09:29:00.810Z,96821.97
2022-12-01T09:31:29.341Z,96825.25
2022-12-01T09:33:58.035Z,96822.56
2022-12-01T09:36:26.454Z,96824.53
2022-12-01T09:38:54.420Z,96813.94
2022-12-01T09:41:24.481Z,96809.44
2022-12-01T09:43:56.308Z,96804.72
2022-12-01T09:46:29.376Z,96812.78
2022-12-01T09:48:58.003Z,96812.03
2022-12-01T09:51:27.532Z,96808.53
2022-12-01T09:53:58.853Z,96810.69
2022-12-01T09:56:28.985Z,96804.06
2022-12-01T09:58:59.188Z,96800.09
2022-12-01T10:01:32.957Z,96807.84
2022-12-01T10:04:05.827Z,96805.91
2022-12-01T10:06:38.460Z,96806.03
2022-12-01T10:09:17.563Z,96805.50
2022-12-01T10:11:46.881Z,96806.16
2022-12-01T10:14:20.176Z,96814.09
2022-12-01T10:16:55.403Z,96810.69
2022-12-01T10:19:26.994Z,96813.81
2022-12-01T10:22:05.094Z,96810.19
2022-12-01T10:24:44.901Z,96801.84
2022-12-01T10:27:27.243Z,96803.25
2022-12-01T10:30:01.801Z,96808.19
2022-12-01T10:32:39.528Z,96805.50
2022-12-01T10:35:07.986Z,96798.00
2022-12-01T10:37:36.011Z,96801.25
2022-12-01T10:40:04.322Z,96799.56
2022-12-01T10:42:35.830Z,96801.34
2022-12-01T10:45:05.978Z,96793.34
2022-12-01T10:47:35.330Z,96792.88
2022-12-01T10:50:05.297Z,96786.59
2022-12-01T10:52:39.269Z,96793.16
2022-12-01T10:55:27.730Z,96796.78
2022-12-01T10:57:56.673Z,96796.78
2022-12-01T11:00:58.126Z,96796.88
2022-12-01T11:03:22.311Z,96802.00
2022-12-01T11:05:53.831Z,96798.47
2022-12-01T11:08:24.341Z,96789.91
2022-12-01T11:10:52.493Z,96789.25
2022-12-01T11:13:23.460Z,96777.19
2022-12-01T11:15:53.576Z,96785.94
2022-12-01T11:18:25.234Z,96775.50
2022-12-01T11:21:07.922Z,96776.44
2022-12-01T11:23:37.928Z,96768.09
2022-12-01T11:26:14.626Z,96760.28
2022-12-01T11:28:52.717Z,96766.31
2022-12-01T11:31:22.293Z,96758.59
2022-12-01T11:33:53.845Z,96754.66
2022-12-01T11:36:24.338Z,96744.41
2022-12-01T11:38:57.004Z,96753.63
2022-12-01T11:41:29.844Z,96756.22
2022-12-01T11:44:01.937Z,96758.09
2022-12-01T11:46:33.315Z,96749.78
2022-12-01T11:49:02.724Z,96749.41
2022-12-01T11:51:37.243Z,96750.34
2022-12-01T11:54:16.144Z,96745.78
2022-12-01T11:56:45.100Z,96749.69
2022-12-01T11:59:16.914Z,96744.63
2022-12-01T12:01:59.681Z,96743.34
2022-12-01T12:04:39.999Z,96746.47
2022-12-01T12:07:13.519Z,96740.81
2022-12-01T12:09:51.946Z,96740.91
2022-12-01T12:12:31.481Z,96732.69
2022-12-01T12:15:06.492Z,96728.56
2022-12-01T12:17:48.908Z,96723.31
2022-12-01T12:20:31.664Z,96731.06
2022-12-01T12:23:14.239Z,96728.59
2022-12-01T12:25:52.244Z,96726.72
2022-12-01T12:28:30.140Z,96736.66
2022-12-01T12:31:04.991Z,96736.06
2022-12-01T12:33:42.972Z,96734.81
2022-12-01T12:36:20.444Z,96728.13
2022-12-01T12:38:59.840Z,96733.53
2022-12-01T12:41:34.661Z,96736.50
2022-12-01T12:44:24.298Z,96737.56
2022-12-01T12:47:07.932Z,96746.72
2022-12-01T12:49:40.671Z,96742.28
2022-12-01T12:52:14.411Z,96740.22
2022-12-01T12:54:48.024Z,96730.31
2022-12-01T12:57:22.685Z,96739.59
2022-12-01T12:59:54.317Z,96729.84
2022-12-01T13:02:26.964Z,96726.47
2022-12-01T13:04:59.355Z,96727.34
2022-12-01T13:07:35.740Z,96727.34
2022-12-01T13:10:11.488Z,96733.00
2022-12-01T13:12:41.695Z,96727.13
2022-12-01T13:15:16.866Z,96728.72
2022-12-01T13:17:46.783Z,96732.50
2022-12-01T13:20:16.013Z,96726.41
2022-12-01T13:22:46.720Z,96724.97
2022-12-01T13:25:16.130Z,96724.31
2022-12-01T13:27:45.481Z,96719.53
2022-12-01T13:30:21.518Z,96726.50
2022-12-01T13:32:49.777Z,96722.38
2022-12-01T13:35:26.819Z,96729.31
2022-12-01T13:38:26.450Z,96730.19
2022-12-01T13:41:14.171Z,96730.41
2022-12-01T13:43:54.882Z,96733.72
2022-12-01T13:46:25.181Z,96734.78
2022-12-01T13:48:54.546Z,96747.22
2022-12-01T13:51:22.525Z,96741.41
2022-12-01T13:54:05.968Z,96735.63
2022-12-01T13:56:47.164Z,96731.13
2022-12-01T13:59:41.124Z,96723.72
2022-12-01T14:02:17.755Z,96731.97
2022-12-01T14:04:45.961Z,96732.63
2022-12-01T14:07:17.173Z,96722.00
2022-12-01T14:09:46.641Z,96727.88
2022-12-01T14:12:18.335Z,96731.41
2022-12-01T14:14:53.650Z,96730.00
2022-12-01T14:17:26.896Z,96723.28
2022-12-01T14:19:55.314Z,96725.34
2022-12-01T14:22:34.743Z,96730.22
2022-12-01T14:25:07.638Z,96727.88
2022-12-01T14:27:44.450Z,96730.53
2022-12-01T14:30:51.799Z,96727.44
2022-12-01T14:33:55.574Z,96730.16
2022-12-01T14:36:41.811Z,96732.84
2022-12-01T14:39:13.859Z,96737.06
2022-12-01T14:41:46.639Z,96739.66
2022-12-01T14:44:21.595Z,96743.00
2022-12-01T14:46:54.185Z,96739.84
2022-12-01T14:49:24.620Z,96744.22
2022-12-01T14:51:55.565Z,96745.19
2022-12-01T14:54:27.610Z,96749.47
2022-12-01T14:57:05.625Z,96749.56
2022-12-01T14:59:34.641Z,96763.03
2022-12-01T15:02:08.933Z,96750.38
2022-12-01T15:04:38.202Z,96756.38
2022-12-01T15:07:06.111Z,96754.50
2022-12-01T15:09:35.259Z,96753.91
2022-12-01T15:12:07.605Z,96753.28
2022-12-01T15:14:37.746Z,96748.97
2022-12-01T15:17:08.883Z,96751.59
2022-12-01T15:19:38.812Z,96749.97
2022-12-01T15:22:08.741Z,96750.94
2022-12-01T15:24:36.754Z,96750.34
2022-12-01T15:27:06.137Z,96751.19
2022-12-01T15:29:37.580Z,96747.00
2022-12-01T15:32:07.928Z,96752.13
2022-12-01T15:34:37.741Z,96757.06
2022-12-01T15:37:10.236Z,96755.19
2022-12-01T15:39:41.695Z,96767.78
2022-12-01T15:42:24.072Z,96765.31
2022-12-01T15:45:00.519Z,96777.00
2022-12-01T15:47:35.835Z,96772.06
2022-12-01T15:50:05.056Z,96779.63
2022-12-01T15:52:33.897Z,96779.66
2022-12-01T15:55:04.867Z,96780.66
2022-12-01T15:57:34.463Z,96783.97
2022-12-01T16:00:02.459Z,96790.47
2022-12-01T16:02:32.162Z,96784.75
2022-12-01T16:05:02.339Z,96780.69
2022-12-01T16:08:11.042Z,96785.91
2022-12-01T16:10:30.257Z,96782.47
2022-12-01T16:13:41.127Z,96784.97
2022-12-01T16:16:30.769Z,96778.16
2022-12-01T16:19:00.419Z,96772.63
2022-12-01T16:21:28.961Z,96773.44
2022-12-01T16:24:01.491Z,96776.06
2022-12-01T16:26:30.011Z,96773.44
2022-12-01T16:28:58.109Z,96779.34
2022-12-01T16:31:28.463Z,96778.59
2022-12-01T16:34:09.841Z,96779.59
2022-12-01T16:36:51.396Z,96775.34
2022-12-01T16:39:19.281Z,96786.25
2022-12-01T16:41:48.007Z,96785.47
2022-12-01T16:44:31.380Z,96769.59
2022-12-01T16:47:00.633Z,96784.63
2022-12-01T16:49:28.609Z,96787.22
2022-12-01T16:51:57.363Z,96777.28
2022-12-01T16:54:26.089Z,96778.03
2022-12-01T16:56:54.057Z,96794.09
2022-12-01T16:59:21.900Z,96787.28
2022-12-01T17:01:49.884Z,96787.53
2022-12-01T17:04:19.303Z,96800.94
2022-12-01T17:06:47.204Z,96789.31
2022-12-01T17:09:15.117Z,96792.81
2022-12-01T17:11:43.354Z,96798.75
2022-12-01T17:14:11.239Z,96795.47
2022-12-01T17:16:39.458Z,96800.66
2022-12-01T17:19:07.344Z,96796.53
2022-12-01T17:21:36.569Z,96792.56
2022-12-01T17:24:04.748Z,96798.38
2022-12-01T17:26:32.626Z,96797.59
2022-12-01T17:29:00.565Z,96797.69
2022-12-01T17:31:28.716Z,96791.88
2022-12-01T17:33:56.642Z,96791.88
2022-12-01T17:36:24.518Z,96804.53
2022-12-01T17:38:53.783Z,96796.22
2022-12-01T17:41:24.848Z,96792.16
2022-12-01T17:43:52.986Z,96803.84
2022-12-01T17:46:20.958Z,96788.84
2022-12-01T17:48:49.418Z,96788.78
2022-12-01T17:51:17.306Z,96786.41
2022-12-01T17:53:45.209Z,96795.56
2022-12-01T17:56:16.598Z,96793.22
2022-12-01T17:58:44.983Z,96796.47
2022-12-01T18:01:15.497Z,96794.94
2022-12-01T18:03:43.889Z,96798.44
2022-12-01T18:06:14.194Z,96804.31
2022-12-01T18:08:42.791Z,96800.19
2022-12-01T18:11:12.686Z,96801.75
2022-12-01T18:13:43.790Z,96799.47
2022-12-01T18:16:13.324Z,96802.00
2022-12-01T18:18:41.549Z,96797.88
2022-12-01T18:21:10.708Z,96802.84
2022-12-01T18:23:38.700Z,96798.63
2022-12-01T18:26:15.151Z,96798.72
2022-12-01T18:28:45.191Z,96800.59
2022-12-01T18:31:15.749Z,96789.69
2022-12-01T18:33:45.246Z,96796.41
2022-12-01T18:36:15.098Z,96787.19
2022-12-01T18:38:43.106Z,96795.69
2022-12-01T18:41:11.126Z,96785.59
2022-12-01T18:43:38.995Z,96784.78
2022-12-01T18:46:08.697Z,96783.16
2022-12-01T18:48:36.715Z,96783.31
2022-12-01T18:51:05.299Z,96781.63
2022-12-01T18:53:33.952Z,96779.84
2022-12-01T18:56:02.972Z,96784.84
2022-12-01T18:58:30.917Z,96787.41
2022-12-01T19:00:59.035Z,96786.72
2022-12-01T19:03:29.772Z,96785.94
2022-12-01T19:05:57.677Z,96782.28
2022-12-01T19:08:25.946Z,96783.25
2022-12-01T19:10:59.573Z,96770.06
2022-12-01T19:13:27.479Z,96778.19
2022-12-01T19:15:55.426Z,96776.72
2022-12-01T19:18:23.615Z,96787.69
2022-12-01T19:20:52.855Z,96788.66
2022-12-01T19:23:20.731Z,96775.28
2022-12-01T19:25:48.635Z,96784.72
2022-12-01T19:28:16.552Z,96777.22
2022-12-01T19:30:48.192Z,96774.78
2022-12-01T19:33:16.528Z,96782.28
2022-12-01T19:35:44.583Z,96770.81
2022-12-01T19:38:14.159Z,96769.22
2022-12-01T19:40:42.549Z,96775.16
2022-12-01T19:43:10.436Z,96775.00
2022-12-01T19:45:38.930Z,96772.50
2022-12-01T19:48:07.371Z,96764.69
2022-12-01T19:50:36.515Z,96751.41
2022-12-01T19:53:04.840Z,96753.88
2022-12-01T19:55:34.134Z,96757.03
2022-12-01T19:58:02.015Z,96753.84
2022-12-01T20:00:30.222Z,96761.88
2022-12-01T20:03:00.183Z,96759.19
2022-12-01T20:05:28.272Z,96766.25
2022-12-01T20:07:56.260Z,96770.59
2022-12-01T20:10:24.177Z,96767.47
2022-12-01T20:12:53.512Z,96776.16
2022-12-01T20:15:21.403Z,96759.34
2022-12-01T20:17:50.194Z,96764.50
2022-12-01T20:20:18.172Z,96768.00
2022-12-01T20:22:46.050Z,96768.84
2022-12-01T20:25:13.985Z,96770.59
2022-12-01T20:27:42.499Z,96766.56
2022-12-01T20:30:13.833Z,96765.75
2022-12-01T20:32:41.807Z,96759.22
2022-12-01T20:35:10.080Z,96755.19
2022-12-01T20:37:37.998Z,96747.75
2022-12-01T20:40:07.072Z,96745.75
2022-12-01T20:42:34.944Z,96760.84
2022-12-01T20:45:02.905Z,96747.03
2022-12-01T20:47:32.217Z,96743.13
2022-12-01T20:50:00.110Z,96740.78
2022-12-01T20:52:28.025Z,96744.38
2022-12-01T20:54:55.936Z,96747.47
2022-12-01T20:57:23.892Z,96742.50
2022-12-01T20:59:52.068Z,96746.75
2022-12-01T21:02:20.050Z,96748.25
2022-12-01T21:04:49.745Z,96746.44
2022-12-01T21:07:18.128Z,96748.75
2022-12-01T21:09:46.108Z,96749.97
2022-12-01T21:12:33.298Z,96742.72
2022-12-01T21:15:04.005Z,96742.69
2022-12-01T21:17:35.023Z,96747.72
2022-12-01T21:20:11.681Z,96750.50
2022-12-01T21:22:39.693Z,96749.16
2022-12-01T21:25:12.073Z,96745.75
2022-12-01T21:27:40.016Z,96753.34
2022-12-01T21:30:16.855Z,96744.97
2022-12-01T21:32:45.877Z,96747.50
2022-12-01T21:35:20.833Z,96745.94
2022-12-01T21:37:49.601Z,96746.63
2022-12-01T21:40:20.494Z,96745.75
2022-12-01T21:42:48.830Z,96747.91
2022-12-01T21:45:23.946Z,96748.13
2022-12-01T21:47:51.996Z,96758.88
2022-12-01T21:50:24.451Z,96753.09
2022-12-01T21:52:52.609Z,96764.22
2022-12-01T21:55:37.215Z,96757.53
2022-12-01T21:58:19.552Z,96759.28
2022-12-01T22:00:47.467Z,96764.63
2022-12-01T22:03:28.958Z,96758.34
2022-12-01T22:06:28.336Z,96753.28
2022-12-01T22:08:50.962Z,96758.63
2022-12-01T22:11:21.951Z,96762.88
2022-12-01T22:13:54.511Z,96757.25
2022-12-01T22:16:23.780Z,96756.34
2022-12-01T22:18:53.959Z,96760.72
2022-12-01T22:21:40.267Z,96748.31
2022-12-01T22:24:35.935Z,96751.88
2022-12-01T22:27:20.860Z,96751.09
2022-12-01T22:29:50.514Z,96737.75
2022-12-01T22:32:36.429Z,96742.78
2022-12-01T22:35:21.960Z,96738.53
2022-12-01T22:37:52.656Z,96737.75
2022-12-01T22:40:38.837Z,96736.16
2022-12-01T22:43:26.773Z,96745.41
2022-12-01T22:46:08.540Z,96732.72
2022-12-01T22:48:39.401Z,96736.16
2022-12-01T22:51:28.703Z,96727.59
2022-12-01T22:54:02.200Z,96731.63
2022-12-01T22:56:37.955Z,96725.03
2022-12-01T22:59:15.533Z,96726.75
2022-12-01T23:01:48.893Z,96721.66
2022-12-01T23:04:23.282Z,96723.00
2022-12-01T23:07:09.495Z,96726.50
2022-12-01T23:09:42.008Z,96722.94
2022-12-01T23:12:25.932Z,96729.56
2022-12-01T23:14:57.008Z,96723.13
2022-12-01T23:17:26.835Z,96722.84
2022-12-01T23:20:02.705Z,96730.56
2022-12-01T23:22:30.613Z,96731.31
2022-12-01T23:25:01.254Z,96726.88
2022-12-01T23:27:29.283Z,96726.06
2022-12-01T23:29:57.270Z,96729.47
2022-12-01T23:32:25.259Z,96722.19
2022-12-01T23:34:57.112Z,96722.97
2022-12-01T23:37:33.758Z,96727.59
2022-12-01T23:40:04.496Z,96726.03
2022-12-01T23:42:32.424Z,96716.03
2022-12-01T23:45:00.330Z,96714.47
2022-12-01T23:47:30.189Z,96706.13
2022-12-01T23:50:00.998Z,96714.41
2022-12-01T23:52:33.567Z,96707.81
2022-12-01T23:55:02.905Z,96704.59
2022-12-01T23:57:31.885Z,96702.81
